createdAt,value
2022-08-09T00:00:00.761Z,100.00
2022-08-09T00:02:31.312Z,100.00
2022-08-09T00:05:03.064Z,100.00
2022-08-09T00:07:45.253Z,100.00
2022-08-09T00:10:17.839Z,100.00
2022-08-09T00:12:52.392Z,100.00
2022-08-09T00:15:19.689Z,100.00
2022-08-09T00:18:10.720Z,100.00
2022-08-09T00:20:41.466Z,100.00
2022-08-09T00:23:58.022Z,100.00
2022-08-09T00:26:01.000Z,100.00
2022-08-09T00:28:31.691Z,100.00
2022-08-09T00:31:01.227Z,100.00
2022-08-09T00:33:51.274Z,100.00
2022-08-09T00:36:18.808Z,100.00
2022-08-09T00:38:46.037Z,100.00
2022-08-09T00:44:10.025Z,100.00
2022-08-09T00:44:13.882Z,100.00
2022-08-09T00:46:57.320Z,100.00
2022-08-09T00:49:28.752Z,100.00
2022-08-09T00:51:57.871Z,100.00
2022-08-09T00:54:35.355Z,100.00
2022-08-09T00:57:10.711Z,100.00
2022-08-09T00:59:40.928Z,100.00
2022-08-09T01:02:08.850Z,100.00
2022-08-09T01:04:44.102Z,100.00
2022-08-09T01:07:18.461Z,100.00
2022-08-09T01:10:18.577Z,100.00
2022-08-09T01:12:52.684Z,100.00
2022-08-09T01:15:21.758Z,100.00
2022-08-09T01:18:14.291Z,100.00
2022-08-09T01:21:00.475Z,100.00
2022-08-09T01:24:01.201Z,100.00
2022-08-09T01:26:53.135Z,100.00
2022-08-09T01:29:56.326Z,100.00
2022-08-09T01:32:31.066Z,100.00
2022-08-09T01:35:07.168Z,100.00
2022-08-09T01:38:08.190Z,100.00
2022-08-09T01:40:42.117Z,100.00
2022-08-09T01:43:08.967Z,100.00
2022-08-09T01:45:44.644Z,100.00
2022-08-09T01:48:15.591Z,100.00
2022-08-09T01:50:48.332Z,100.00
2022-08-09T01:53:19.141Z,100.00
2022-08-09T01:55:47.348Z,100.00
2022-08-09T01:58:15.082Z,100.00
2022-08-09T02:00:46.244Z,100.00
2022-08-09T02:03:17.061Z,100.00
2022-08-09T02:06:03.354Z,100.00
2022-08-09T02:08:39.998Z,100.00
2022-08-09T02:11:18.836Z,100.00
2022-08-09T02:13:55.415Z,100.00
2022-08-09T02:16:59.948Z,100.00
2022-08-09T02:19:22.470Z,100.00
2022-08-09T02:21:55.573Z,100.00
2022-08-09T02:24:26.467Z,100.00
2022-08-09T02:26:55.605Z,100.00
2022-08-09T02:29:27.737Z,100.00
2022-08-09T02:32:01.260Z,100.00
2022-08-09T02:34:40.460Z,100.00
2022-08-09T02:37:12.394Z,100.00
2022-08-09T02:39:44.456Z,100.00
2022-08-09T02:42:25.742Z,100.00
2022-08-09T02:45:07.834Z,100.00
2022-08-09T02:47:58.080Z,100.00
2022-08-09T02:50:25.336Z,100.00
2022-08-09T02:53:09.121Z,100.00
2022-08-09T02:55:57.335Z,100.00
2022-08-09T02:58:32.408Z,100.00
2022-08-09T03:01:04.020Z,100.00
2022-08-09T03:04:13.028Z,100.00
2022-08-09T03:06:21.649Z,100.00
2022-08-09T03:08:49.693Z,100.00
2022-08-09T03:11:29.742Z,100.00
2022-08-09T03:14:07.539Z,100.00
2022-08-09T03:16:41.808Z,100.00
2022-08-09T03:19:14.332Z,100.00
2022-08-09T03:21:59.456Z,100.00
2022-08-09T03:24:42.645Z,100.00
2022-08-09T03:27:12.540Z,100.00
2022-08-09T03:29:58.017Z,100.00
2022-08-09T03:32:29.802Z,100.00
2022-08-09T03:34:56.844Z,100.00
2022-08-09T03:37:54.378Z,100.00
2022-08-09T03:40:13.219Z,100.00
2022-08-09T03:42:40.129Z,100.00
2022-08-09T03:45:10.478Z,100.00
2022-08-09T03:47:40.050Z,100.00
2022-08-09T03:50:10.222Z,100.00
2022-08-09T03:52:38.809Z,100.00
2022-08-09T03:55:07.716Z,100.00
2022-08-09T03:57:53.838Z,100.00
2022-08-09T04:00:25.394Z,100.00
2022-08-09T04:02:54.067Z,100.00
2022-08-09T04:05:26.755Z,100.00
2022-08-09T04:07:56.889Z,100.00
2022-08-09T04:10:28.917Z,100.00
2022-08-09T04:12:56.885Z,100.00
2022-08-09T04:15:42.552Z,100.00
2022-08-09T04:18:17.785Z,100.00
2022-08-09T04:20:46.084Z,100.00
2022-08-09T04:23:17.013Z,100.00
2022-08-09T04:25:49.871Z,100.00
2022-08-09T04:28:30.597Z,100.00
2022-08-09T04:31:00.782Z,100.00
2022-08-09T04:33:34.250Z,100.00
2022-08-09T04:36:24.271Z,100.00
2022-08-09T04:38:51.012Z,100.00
2022-08-09T04:41:18.728Z,100.00
2022-08-09T04:43:53.826Z,100.00
2022-08-09T04:46:37.344Z,100.00
2022-08-09T04:49:30.288Z,100.00
2022-08-09T04:52:05.476Z,100.00
2022-08-09T04:54:33.987Z,100.00
2022-08-09T04:57:00.504Z,100.00
2022-08-09T04:59:30.350Z,100.00
2022-08-09T05:01:56.759Z,100.00
2022-08-09T05:04:23.182Z,100.00
2022-08-09T05:06:57.313Z,100.00
2022-08-09T05:09:24.475Z,100.00
2022-08-09T05:11:51.501Z,100.00
2022-08-09T05:14:18.415Z,100.00
2022-08-09T05:16:59.355Z,100.00
2022-08-09T05:19:44.456Z,100.00
2022-08-09T05:22:33.374Z,100.00
2022-08-09T05:25:01.027Z,100.00
2022-08-09T05:27:29.088Z,100.00
2022-08-09T05:29:57.723Z,100.00
2022-08-09T05:32:25.773Z,100.00
2022-08-09T05:34:52.228Z,100.00
2022-08-09T05:37:18.672Z,100.00
2022-08-09T05:39:45.153Z,100.00
2022-08-09T05:42:17.509Z,100.00
2022-08-09T05:44:50.437Z,100.00
2022-08-09T05:47:17.557Z,100.00
2022-08-09T05:50:23.499Z,100.00
2022-08-09T05:52:30.813Z,100.00
2022-08-09T05:55:03.006Z,100.00
2022-08-09T05:57:50.415Z,100.00
2022-08-09T06:00:22.807Z,100.00
2022-08-09T06:02:54.722Z,100.00
2022-08-09T06:05:49.951Z,100.00
2022-08-09T06:08:11.016Z,100.00
2022-08-09T06:10:37.865Z,100.00
2022-08-09T06:13:12.127Z,100.00
2022-08-09T06:15:44.681Z,100.00
2022-08-09T06:18:13.587Z,100.00
2022-08-09T06:20:42.567Z,100.00
2022-08-09T06:23:12.016Z,100.00
2022-08-09T06:25:42.071Z,100.00
2022-08-09T06:28:10.129Z,100.00
2022-08-09T06:30:40.371Z,100.00
2022-08-09T06:33:30.374Z,100.00
2022-08-09T06:35:58.232Z,100.00
2022-08-09T06:38:37.129Z,100.00
2022-08-09T06:41:04.775Z,100.00
2022-08-09T06:43:36.316Z,100.00
2022-08-09T06:46:10.825Z,100.00
2022-08-09T06:48:42.977Z,100.00
2022-08-09T06:51:10.961Z,100.00
2022-08-09T06:53:39.043Z,100.00
2022-08-09T06:56:09.621Z,100.00
2022-08-09T07:00:47.654Z,100.00
2022-08-09T07:01:35.756Z,100.00
2022-08-09T07:04:11.003Z,100.00
2022-08-09T07:06:46.826Z,100.00
2022-08-09T07:09:54.165Z,100.00
2022-08-09T07:12:06.152Z,100.00
2022-08-09T07:14:32.565Z,100.00
2022-08-09T07:16:58.999Z,100.00
2022-08-09T07:19:25.471Z,100.00
2022-08-09T07:21:57.767Z,100.00
2022-08-09T07:24:32.446Z,100.00
2022-08-09T07:27:23.852Z,100.00
2022-08-09T07:29:56.824Z,100.00
2022-08-09T07:32:32.402Z,100.00
2022-08-09T07:35:11.875Z,100.00
2022-08-09T07:37:43.351Z,100.00
2022-08-09T07:40:17.692Z,100.00
2022-08-09T07:43:03.371Z,100.00
2022-08-09T07:45:41.140Z,100.00
2022-08-09T07:48:22.421Z,100.00
2022-08-09T07:51:09.687Z,100.00
2022-08-09T07:54:05.337Z,100.00
2022-08-09T07:56:31.252Z,100.00
2022-08-09T07:58:59.491Z,100.00
2022-08-09T08:01:33.205Z,100.00
2022-08-09T08:04:03.799Z,100.00
2022-08-09T08:06:36.656Z,100.00
2022-08-09T08:09:35.258Z,100.00
2022-08-09T08:12:24.707Z,100.00
2022-08-09T08:14:45.881Z,100.00
2022-08-09T08:17:24.716Z,100.00
2022-08-09T08:19:58.735Z,100.00
2022-08-09T08:22:25.767Z,100.00
2022-08-09T08:24:57.918Z,98.57
2022-08-09T08:27:25.331Z,96.30
2022-08-09T08:29:53.722Z,92.93
2022-08-09T08:32:34.608Z,90.50
2022-08-09T08:35:07.912Z,85.80
2022-08-09T08:37:41.155Z,90.65
2022-08-09T08:40:21.997Z,90.90
2022-08-09T08:42:53.083Z,89.31
2022-08-09T08:45:36.762Z,84.84
2022-08-09T08:48:05.651Z,81.26
2022-08-09T08:50:32.212Z,86.54
2022-08-09T08:53:00.529Z,88.57
2022-08-09T08:55:28.072Z,82.68
2022-08-09T08:57:57.093Z,80.44
2022-08-09T09:00:27.712Z,78.38
2022-08-09T09:03:08.175Z,77.23
2022-08-09T09:05:59.617Z,77.57
2022-08-09T09:08:30.198Z,73.64
2022-08-09T09:11:02.669Z,76.19
2022-08-09T09:13:42.160Z,75.18
2022-08-09T09:16:17.660Z,72.75
2022-08-09T09:19:21.518Z,72.84
2022-08-09T09:22:04.174Z,69.11
2022-08-09T09:24:43.353Z,71.64
2022-08-09T09:28:02.804Z,70.91
2022-08-09T09:30:14.237Z,70.93
2022-08-09T09:33:16.116Z,69.19
2022-08-09T09:36:19.837Z,65.65
2022-08-09T09:38:48.903Z,66.89
2022-08-09T09:41:26.049Z,65.23
2022-08-09T09:44:11.621Z,61.89
2022-08-09T09:46:46.199Z,62.30
2022-08-09T09:49:31.853Z,60.45
2022-08-09T09:52:33.281Z,60.64
2022-08-09T09:55:02.658Z,58.91
2022-08-09T09:58:03.080Z,59.29
2022-08-09T10:00:33.779Z,58.85
2022-08-09T10:03:09.195Z,58.85
2022-08-09T10:06:01.056Z,58.22
2022-08-09T10:08:30.897Z,56.66
2022-08-09T10:10:58.515Z,56.75
2022-08-09T10:13:43.484Z,54.95
2022-08-09T10:16:57.077Z,53.57
2022-08-09T10:19:00.773Z,53.21
2022-08-09T10:21:29.040Z,52.72
2022-08-09T10:23:56.605Z,51.99
2022-08-09T10:26:24.619Z,52.82
2022-08-09T10:29:21.385Z,53.58
2022-08-09T10:32:27.895Z,51.30
2022-08-09T10:34:34.025Z,51.81
2022-08-09T10:37:02.546Z,50.65
2022-08-09T10:39:29.858Z,48.39
2022-08-09T10:42:01.922Z,48.66
2022-08-09T10:44:30.682Z,48.59
2022-08-09T10:48:13.463Z,50.30
2022-08-09T10:50:52.077Z,50.11
2022-08-09T10:53:54.226Z,48.65
2022-08-09T10:56:29.345Z,48.20
2022-08-09T10:58:58.390Z,48.85
2022-08-09T11:03:16.281Z,48.45
2022-08-09T11:04:30.489Z,47.95
2022-08-09T11:06:59.571Z,47.65
2022-08-09T11:09:38.942Z,46.53
2022-08-09T11:12:30.319Z,46.96
2022-08-09T11:15:24.019Z,47.27
2022-08-09T11:18:02.604Z,45.88
2022-08-09T11:20:49.907Z,46.89
2022-08-09T11:23:16.884Z,47.46
2022-08-09T11:25:50.749Z,47.61
2022-08-09T11:28:33.834Z,45.73
2022-08-09T11:31:03.802Z,46.73
2022-08-09T11:33:46.229Z,44.85
2022-08-09T11:36:14.737Z,45.27
2022-08-09T11:39:02.095Z,45.05
2022-08-09T11:41:38.200Z,45.33
2022-08-09T11:44:07.401Z,45.61
2022-08-09T11:46:57.450Z,43.96
2022-08-09T11:50:52.352Z,43.76
2022-08-09T11:53:16.502Z,42.31
2022-08-09T11:55:53.175Z,43.50
2022-08-09T11:58:32.502Z,42.44
2022-08-09T12:01:09.013Z,42.00
2022-08-09T12:03:59.075Z,42.35
2022-08-09T12:06:32.513Z,43.46
2022-08-09T12:09:05.823Z,41.34
2022-08-09T12:12:02.475Z,40.41
2022-08-09T12:14:40.862Z,40.77
2022-08-09T12:17:28.221Z,39.91
2022-08-09T12:20:19.822Z,38.46
2022-08-09T12:22:52.633Z,38.74
2022-08-09T12:25:37.262Z,37.24
2022-08-09T12:29:13.813Z,36.99
2022-08-09T12:31:00.262Z,37.62
2022-08-09T12:33:51.450Z,37.26
2022-08-09T12:36:27.365Z,37.74
2022-08-09T12:38:59.718Z,36.96
2022-08-09T12:41:33.688Z,37.04
2022-08-09T12:44:07.285Z,37.20
2022-08-09T12:46:36.294Z,36.60
2022-08-09T12:49:03.757Z,35.75
2022-08-09T12:51:59.850Z,35.21
2022-08-09T12:54:17.743Z,35.36
2022-08-09T12:56:51.279Z,34.22
2022-08-09T12:59:22.794Z,33.85
2022-08-09T13:02:05.125Z,35.47
2022-08-09T13:04:38.187Z,35.36
2022-08-09T13:07:13.977Z,36.24
2022-08-09T13:09:43.364Z,35.00
2022-08-09T13:12:19.707Z,33.72
2022-08-09T13:14:53.790Z,34.78
2022-08-09T13:17:44.123Z,31.90
2022-08-09T13:20:13.303Z,32.62
2022-08-09T13:23:05.706Z,32.20
2022-08-09T13:25:54.416Z,32.57
2022-08-09T13:28:33.837Z,33.51
2022-08-09T13:32:17.560Z,32.13
2022-08-09T13:33:54.019Z,31.86
2022-08-09T13:36:39.065Z,31.18
2022-08-09T13:41:20.823Z,31.00
2022-08-09T13:42:12.528Z,32.28
2022-08-09T13:44:40.384Z,30.96
2022-08-09T13:47:17.834Z,30.78
2022-08-09T13:50:01.207Z,32.41
2022-08-09T13:52:30.073Z,32.30
2022-08-09T13:54:58.987Z,31.53
2022-08-09T13:57:35.417Z,31.48
2022-08-09T14:00:04.654Z,31.85
2022-08-09T14:02:31.069Z,30.42
2022-08-09T14:05:02.739Z,29.54
2022-08-09T14:07:41.940Z,30.49
2022-08-09T14:10:17.584Z,32.37
2022-08-09T14:12:58.007Z,33.77
2022-08-09T14:16:08.971Z,33.68
2022-08-09T14:18:19.964Z,32.30
2022-08-09T14:20:57.670Z,32.43
2022-08-09T14:23:40.452Z,32.81
2022-08-09T14:26:11.092Z,31.70
2022-08-09T14:28:37.760Z,30.51
2022-08-09T14:31:04.453Z,29.81
2022-08-09T14:33:30.884Z,30.06
2022-08-09T14:36:20.896Z,30.40
2022-08-09T14:38:52.818Z,30.41
2022-08-09T14:41:39.508Z,30.79
2022-08-09T14:44:06.619Z,31.21
2022-08-09T14:46:46.363Z,32.22
2022-08-09T14:49:23.585Z,31.83
2022-08-09T14:51:50.561Z,33.17
2022-08-09T14:54:28.217Z,33.75
2022-08-09T14:56:58.207Z,33.89
2022-08-09T14:59:27.141Z,34.70
2022-08-09T15:01:53.922Z,34.85
2022-08-09T15:04:20.525Z,35.32
2022-08-09T15:06:50.446Z,37.26
2022-08-09T15:10:03.602Z,38.65
2022-08-09T15:12:05.450Z,35.38
2022-08-09T15:14:35.048Z,37.06
2022-08-09T15:17:07.555Z,38.13
2022-08-09T15:19:36.469Z,37.55
2022-08-09T15:22:03.671Z,38.48
2022-08-09T15:24:30.171Z,38.93
2022-08-09T15:26:57.627Z,39.37
2022-08-09T15:30:58.199Z,38.63
2022-08-09T15:32:28.876Z,38.65
2022-08-09T15:34:59.656Z,38.64
2022-08-09T15:37:56.631Z,38.37
2022-08-09T15:40:25.347Z,39.63
2022-08-09T15:42:58.371Z,39.71
2022-08-09T15:45:29.685Z,38.67
2022-08-09T15:48:05.521Z,39.90
2022-08-09T15:50:44.001Z,39.18
2022-08-09T15:53:17.959Z,39.65
2022-08-09T15:56:21.058Z,40.05
2022-08-09T15:58:44.023Z,39.47
2022-08-09T16:01:12.944Z,39.58
2022-08-09T16:03:41.795Z,39.38
2022-08-09T16:06:29.467Z,39.71
2022-08-09T16:08:55.959Z,39.66
2022-08-09T16:11:22.392Z,40.24
2022-08-09T16:14:03.759Z,40.70
2022-08-09T16:16:33.443Z,39.92
2022-08-09T16:19:01.331Z,39.38
2022-08-09T16:21:31.809Z,39.91
2022-08-09T16:24:02.625Z,39.64
2022-08-09T16:26:34.507Z,38.78
2022-08-09T16:29:11.099Z,39.17
2022-08-09T16:32:18.924Z,39.11
2022-08-09T16:34:27.087Z,39.35
2022-08-09T16:36:55.971Z,39.39
2022-08-09T16:39:25.603Z,39.30
2022-08-09T16:42:02.842Z,39.60
2022-08-09T16:44:31.717Z,39.91
2022-08-09T16:47:03.940Z,39.36
2022-08-09T16:50:32.396Z,40.28
2022-08-09T16:52:31.743Z,40.25
2022-08-09T16:54:58.304Z,40.51
2022-08-09T16:57:24.705Z,39.72
2022-08-09T16:59:57.633Z,39.73
2022-08-09T17:02:25.572Z,40.35
2022-08-09T17:04:52.102Z,40.41
2022-08-09T17:08:43.015Z,41.35
2022-08-09T17:10:07.311Z,41.11
2022-08-09T17:12:35.814Z,42.18
2022-08-09T17:15:02.473Z,42.45
2022-08-09T17:17:50.746Z,42.39
2022-08-09T17:20:35.131Z,42.76
2022-08-09T17:23:03.348Z,41.77
2022-08-09T17:25:31.759Z,41.50
2022-08-09T17:28:04.681Z,42.17
2022-08-09T17:30:31.624Z,42.70
2022-08-09T17:33:04.673Z,43.09
2022-08-09T17:35:33.876Z,42.44
2022-08-09T17:38:14.337Z,42.98
2022-08-09T17:40:47.362Z,42.72
2022-08-09T17:43:34.022Z,42.85
2022-08-09T17:46:03.518Z,42.56
2022-08-09T17:48:38.925Z,42.78
2022-08-09T17:51:18.614Z,42.51
2022-08-09T17:53:52.876Z,42.92
2022-08-09T17:56:28.795Z,42.63
2022-08-09T17:58:58.113Z,43.00
2022-08-09T18:01:24.836Z,42.93
2022-08-09T18:03:54.263Z,42.81
2022-08-09T18:06:30.947Z,43.21
2022-08-09T18:08:58.213Z,43.29
2022-08-09T18:11:24.685Z,43.66
2022-08-09T18:13:57.706Z,43.47
2022-08-09T18:16:30.764Z,44.00
2022-08-09T18:19:04.214Z,44.56
2022-08-09T18:21:50.350Z,44.44
2022-08-09T18:24:19.340Z,44.73
2022-08-09T18:26:46.362Z,44.05
2022-08-09T18:30:40.546Z,44.53
2022-08-09T18:32:02.863Z,44.45
2022-08-09T18:34:31.353Z,44.69
2022-08-09T18:36:58.204Z,44.47
2022-08-09T18:39:25.529Z,44.65
2022-08-09T18:41:53.917Z,44.87
2022-08-09T18:44:25.688Z,45.51
2022-08-09T18:47:08.421Z,45.48
2022-08-09T18:49:41.455Z,46.39
2022-08-09T18:52:10.271Z,46.46
2022-08-09T18:54:38.617Z,46.77
2022-08-09T18:57:06.769Z,46.21
2022-08-09T18:59:37.409Z,47.18
2022-08-09T19:02:15.126Z,47.89
2022-08-09T19:04:41.589Z,48.29
2022-08-09T19:07:14.319Z,47.98
2022-08-09T19:10:14.279Z,48.27
2022-08-09T19:12:32.267Z,48.64
2022-08-09T19:15:04.441Z,50.32
2022-08-09T19:17:47.581Z,51.47
2022-08-09T19:20:19.985Z,52.60
2022-08-09T19:22:53.928Z,52.83
2022-08-09T19:25:42.647Z,52.96
2022-08-09T19:28:08.831Z,53.12
2022-08-09T19:30:44.426Z,52.93
2022-08-09T19:33:19.504Z,52.14
2022-08-09T19:35:57.055Z,51.44
2022-08-09T19:38:25.239Z,51.25
2022-08-09T19:40:51.725Z,50.94
2022-08-09T19:43:57.912Z,51.79
2022-08-09T19:46:08.384Z,53.26
2022-08-09T19:49:00.694Z,54.08
2022-08-09T19:51:27.708Z,55.88
2022-08-09T19:53:58.239Z,56.22
2022-08-09T19:56:29.108Z,57.71
2022-08-09T19:59:40.068Z,58.16
2022-08-09T20:01:53.097Z,59.68
2022-08-09T20:04:36.662Z,59.66
2022-08-09T20:07:06.208Z,60.16
2022-08-09T20:09:44.630Z,60.20
2022-08-09T20:12:30.268Z,59.68
2022-08-09T20:15:01.501Z,58.75
2022-08-09T20:17:48.471Z,59.25
2022-08-09T20:20:17.625Z,59.21
2022-08-09T20:22:46.427Z,60.15
2022-08-09T20:25:13.125Z,61.16
2022-08-09T20:27:49.129Z,60.92
2022-08-09T20:30:17.946Z,61.64
2022-08-09T20:32:48.740Z,64.29
2022-08-09T20:35:19.942Z,66.56
2022-08-09T20:38:21.171Z,68.49
2022-08-09T20:40:32.968Z,67.96
2022-08-09T20:43:18.898Z,68.21
2022-08-09T20:46:01.658Z,68.17
2022-08-09T20:48:32.356Z,69.35
2022-08-09T20:51:00.289Z,69.22
2022-08-09T20:53:37.383Z,69.78
2022-08-09T20:56:20.410Z,70.79
2022-08-09T20:58:54.214Z,71.48
2022-08-09T21:01:34.624Z,72.75
2022-08-09T21:04:08.145Z,74.00
2022-08-09T21:06:53.648Z,73.72
2022-08-09T21:09:25.069Z,75.93
2022-08-09T21:14:40.652Z,78.05
2022-08-09T21:18:11.989Z,79.31
2022-08-09T21:20:04.497Z,79.31
2022-08-09T21:22:42.428Z,78.78
2022-08-09T21:25:38.003Z,79.67
2022-08-09T21:28:04.785Z,79.87
2022-08-09T21:30:33.915Z,80.90
2022-08-09T21:33:03.569Z,81.78
2022-08-09T21:35:39.522Z,82.72
2022-08-09T21:38:08.789Z,84.61
2022-08-09T21:40:36.677Z,85.01
2022-08-09T21:43:06.052Z,84.51
2022-08-09T21:45:33.416Z,85.08
2022-08-09T21:48:06.728Z,85.88
2022-08-09T21:50:39.001Z,86.17
2022-08-09T21:53:19.902Z,86.12
2022-08-09T21:55:56.378Z,87.62
2022-08-09T21:58:31.073Z,89.42
2022-08-09T22:00:58.063Z,89.67
2022-08-09T22:03:25.868Z,90.32
2022-08-09T22:05:54.234Z,90.94
2022-08-09T22:08:22.951Z,92.76
2022-08-09T22:11:00.326Z,92.76
2022-08-09T22:13:38.384Z,94.05
2022-08-09T22:16:09.342Z,93.79
2022-08-09T22:18:37.849Z,92.44
2022-08-09T22:21:09.963Z,91.79
2022-08-09T22:24:00.050Z,93.50
2022-08-09T22:26:35.402Z,95.44
2022-08-09T22:29:09.256Z,97.21
2022-08-09T22:31:37.177Z,96.98
2022-08-09T22:34:09.659Z,98.39
2022-08-09T22:36:46.027Z,99.15
2022-08-09T22:39:20.755Z,99.51
2022-08-09T22:42:03.271Z,99.55
2022-08-09T22:44:33.107Z,99.79
2022-08-09T22:48:13.131Z,99.77
2022-08-09T22:49:47.605Z,99.76
2022-08-09T22:52:18.769Z,100.00
2022-08-09T22:54:47.042Z,100.00
2022-08-09T22:57:13.848Z,100.00
2022-08-09T22:59:55.237Z,100.00
2022-08-09T23:02:25.057Z,100.00
2022-08-09T23:04:53.607Z,100.00
2022-08-09T23:08:22.247Z,100.00
2022-08-09T23:10:27.085Z,100.00
2022-08-09T23:12:53.518Z,100.00
2022-08-09T23:15:20.048Z,100.00
2022-08-09T23:17:46.474Z,100.00
2022-08-09T23:20:12.883Z,100.00
2022-08-09T23:22:39.345Z,100.00
2022-08-09T23:25:06.696Z,100.00
2022-08-09T23:27:33.821Z,100.00
2022-08-09T23:30:00.364Z,100.00
2022-08-09T23:32:26.795Z,100.00
2022-08-09T23:34:53.363Z,100.00
2022-08-09T23:37:22.679Z,100.00
2022-08-09T23:39:51.828Z,100.00
2022-08-09T23:42:18.244Z,100.00
2022-08-09T23:44:44.899Z,100.00
2022-08-09T23:47:11.309Z,100.00
2022-08-09T23:49:37.717Z,100.00
2022-08-09T23:52:04.626Z,100.00
2022-08-09T23:54:31.055Z,100.00
2022-08-09T23:56:58.227Z,100.00
2022-08-09T23:59:25.688Z,100.00
